Tulsa, OK (74101)

2:45 PM CDT on August 27, 2015 (GMT -0500)
Sheridan Valley - South Tulsa | | Change Station
CLOSE
Current Station
Personal Weather Station
Location: Tulsa, OK
Elevation: 774 ft
Nearby Weather Stations

Elev 774 ft 36.05 °N, 95.90 °W | Updated 2 seconds ago

Overcast
Overcast
70.7 °F
Feels Like 70.7 °F
N
2.0
Wind Variable Wind from North
Gusts 3.0 mph

Today
High -- | Low -- °F
--% Chance of Precip.
Yesterday
High -- | Low -- °F
Precip. -- in
6:51 AM 7:58 PM
Waxing Gibbous, 94% visible
Pressure 30.12 in
Visibility 10.0 miles
Clouds Few 9500 ft
Mostly Cloudy 11000 ft
Dew Point 69 °F
Humidity 94%
Rainfall 0.00 in
Snow Depth Not available.
UV 6 out of 12
Pollen 8.80 out of 12
Air Quality Not available.
Flu Activity Not available.
METAR KRVS 271853Z 22005KT 10SM FEW095 BKN110 22/18 A3011 RMK AO2 SLP200 T02220178
Pressure 30.12 in
Visibility 10.0 miles
Clouds Few 9500 ft
Mostly Cloudy 11000 ft
Dew Point 69 °F
Humidity 94%
Rainfall 0.00 in
Snow Depth Not available.
UV 6 out of 12
Pollen 8.80 out of 12
Air Quality Not available.
Flu Activity Not available.
METAR KRVS 271853Z 22005KT 10SM FEW095 BKN110 22/18 A3011 RMK AO2 SLP200 T02220178
Nowcast | as of 2:44 PM CDT on August 27, 2015

At 2:45 PM...Doppler radars detected rapidly dissipating showers over portions of northeast Oklahoma. This activity was located over parts of Sequoyah...Muskogee...Wagoner...Tulsa and Rogers counties...and moving south. Through 3:45 PM...a few light showers or sprinkles will be possible for locations across northeast Oklahoma before this activity completely dissipates. Additional rainfall from a trace to a couple hundredths of an inch will be possible. This activity is expected to come to an end by 4 PM...therefor this will be the final short term forecast issued for this event.

×

10-Day Weather Forecast

×

Almanac

Astronomy

Aug. 27, 2015 Rise Set
Actual Time
Civil Twilight
Nautical Twilight
Astronomical Twilight
Moon
Length of Visible Light
Length of Day
Tomorrow will be .
, % of the Moon is Illuminated

Today's Extremes

State Highs State Lows

Community

WunderPhotos

Upload Photos

1,850,200 photos uploaded!

WunderBlogs® & News

Nearby

Air Quality

  Air Quality AQ Index Pollutant
Not available.

Snow Depth

Station Depth Elevation

Earthquake Activity

City Distance Mag. Time & Date
Minimum magnitude displayed is 2.5.

Coastal Water Temperatures

Place Temperature

Stations

Nearby Weather Stations

Station Location Temp. Windchill Dew Point Humidity Wind Precip. Elev Updated Type